sensor_id;sensor_type;location;lat;lon;timestamp;P1;durP1;ratioP1;P2;durP2;ratioP2
37529;SDS011;23374;52.758;6.872;2022-09-01T00:02:16;2.07;;;1.37;;
37529;SDS011;23374;52.758;6.872;2022-09-01T00:04:37;7.00;;;1.50;;
37529;SDS011;23374;52.758;6.872;2022-09-01T00:06:57;1.80;;;1.30;;
37529;SDS011;23374;52.758;6.872;2022-09-01T00:09:18;2.03;;;1.40;;
37529;SDS011;23374;52.758;6.872;2022-09-01T00:11:41;5.70;;;1.93;;
37529;SDS011;23374;52.758;6.872;2022-09-01T00:14:03;4.57;;;2.07;;
37529;SDS011;23374;52.758;6.872;2022-09-01T00:16:25;1.53;;;1.27;;
37529;SDS011;23374;52.758;6.872;2022-09-01T00:18:48;2.83;;;1.57;;
37529;SDS011;23374;52.758;6.872;2022-09-01T00:21:12;4.07;;;1.23;;
37529;SDS011;23374;52.758;6.872;2022-09-01T00:23:32;1.77;;;1.43;;
37529;SDS011;23374;52.758;6.872;2022-09-01T00:25:53;1.70;;;1.03;;
37529;SDS011;23374;52.758;6.872;2022-09-01T00:28:14;2.77;;;1.47;;
37529;SDS011;23374;52.758;6.872;2022-09-01T00:30:34;3.43;;;1.47;;
37529;SDS011;23374;52.758;6.872;2022-09-01T00:32:55;2.13;;;1.57;;
37529;SDS011;23374;52.758;6.872;2022-09-01T00:35:17;3.07;;;1.60;;
37529;SDS011;23374;52.758;6.872;2022-09-01T00:37:38;2.30;;;1.40;;
37529;SDS011;23374;52.758;6.872;2022-09-01T00:39:58;7.80;;;1.80;;
37529;SDS011;23374;52.758;6.872;2022-09-01T00:42:18;4.67;;;1.60;;
37529;SDS011;23374;52.758;6.872;2022-09-01T00:44:39;1.83;;;1.30;;
37529;SDS011;23374;52.758;6.872;2022-09-01T00:46:59;2.87;;;1.40;;
37529;SDS011;23374;52.758;6.872;2022-09-01T00:49:31;3.17;;;1.47;;
37529;SDS011;23374;52.758;6.872;2022-09-01T00:52:47;2.27;;;1.40;;
37529;SDS011;23374;52.758;6.872;2022-09-01T00:55:21;1.80;;;1.43;;
37529;SDS011;23374;52.758;6.872;2022-09-01T00:57:49;2.73;;;1.60;;
37529;SDS011;23374;52.758;6.872;2022-09-01T01:00:19;3.07;;;1.90;;
37529;SDS011;23374;52.758;6.872;2022-09-01T01:02:42;2.07;;;1.60;;
37529;SDS011;23374;52.758;6.872;2022-09-01T01:05:05;4.47;;;1.90;;
37529;SDS011;23374;52.758;6.872;2022-09-01T01:07:26;3.50;;;1.70;;
37529;SDS011;23374;52.758;6.872;2022-09-01T01:09:47;4.37;;;1.50;;
37529;SDS011;23374;52.758;6.872;2022-09-01T01:12:10;2.20;;;1.70;;
37529;SDS011;23374;52.758;6.872;2022-09-01T01:14:34;2.50;;;1.60;;
37529;SDS011;23374;52.758;6.872;2022-09-01T01:16:55;2.97;;;1.63;;
37529;SDS011;23374;52.758;6.872;2022-09-01T01:19:39;3.40;;;1.53;;
37529;SDS011;23374;52.758;6.872;2022-09-01T01:22:51;3.03;;;1.60;;
37529;SDS011;23374;52.758;6.872;2022-09-01T01:26:08;1.97;;;1.43;;
37529;SDS011;23374;52.758;6.872;2022-09-01T01:28:33;2.80;;;1.80;;
37529;SDS011;23374;52.758;6.872;2022-09-01T01:31:02;5.27;;;1.70;;
37529;SDS011;23374;52.758;6.872;2022-09-01T01:33:33;1.80;;;1.60;;
37529;SDS011;23374;52.758;6.872;2022-09-01T01:36:00;2.27;;;1.57;;
37529;SDS011;23374;52.758;6.872;2022-09-01T01:38:22;4.77;;;1.67;;
37529;SDS011;23374;52.758;6.872;2022-09-01T01:40:43;2.53;;;1.80;;
37529;SDS011;23374;52.758;6.872;2022-09-01T01:43:04;2.47;;;1.67;;
37529;SDS011;23374;52.758;6.872;2022-09-01T01:45:25;2.53;;;1.60;;
37529;SDS011;23374;52.758;6.872;2022-09-01T01:47:48;2.37;;;1.50;;
37529;SDS011;23374;52.758;6.872;2022-09-01T01:50:11;2.47;;;1.50;;
37529;SDS011;23374;52.758;6.872;2022-09-01T01:52:34;3.50;;;1.63;;
37529;SDS011;23374;52.758;6.872;2022-09-01T01:54:55;3.13;;;1.90;;
37529;SDS011;23374;52.758;6.872;2022-09-01T01:57:15;2.93;;;1.57;;
37529;SDS011;23374;52.758;6.872;2022-09-01T01:59:36;2.70;;;1.70;;
37529;SDS011;23374;52.758;6.872;2022-09-01T02:01:59;3.07;;;1.73;;
37529;SDS011;23374;52.758;6.872;2022-09-01T02:04:22;1.97;;;1.53;;
37529;SDS011;23374;52.758;6.872;2022-09-01T02:06:43;2.87;;;1.70;;
37529;SDS011;23374;52.758;6.872;2022-09-01T02:09:04;2.97;;;1.70;;
37529;SDS011;23374;52.758;6.872;2022-09-01T02:11:26;3.53;;;1.70;;
37529;SDS011;23374;52.758;6.872;2022-09-01T02:13:46;2.77;;;1.67;;
37529;SDS011;23374;52.758;6.872;2022-09-01T02:16:08;3.43;;;1.93;;
37529;SDS011;23374;52.758;6.872;2022-09-01T02:18:36;4.57;;;1.73;;
37529;SDS011;23374;52.758;6.872;2022-09-01T02:20:57;2.80;;;1.87;;
37529;SDS011;23374;52.758;6.872;2022-09-01T02:23:19;2.50;;;1.47;;
37529;SDS011;23374;52.758;6.872;2022-09-01T02:25:44;2.10;;;1.70;;
37529;SDS011;23374;52.758;6.872;2022-09-01T02:28:05;2.97;;;1.57;;
37529;SDS011;23374;52.758;6.872;2022-09-01T02:30:28;1.80;;;1.40;;
37529;SDS011;23374;52.758;6.872;2022-09-01T02:32:51;2.07;;;1.80;;
37529;SDS011;23374;52.758;6.872;2022-09-01T02:35:11;3.53;;;1.80;;
37529;SDS011;23374;52.758;6.872;2022-09-01T02:37:32;2.33;;;1.43;;
37529;SDS011;23374;52.758;6.872;2022-09-01T02:39:52;2.73;;;1.50;;
37529;SDS011;23374;52.758;6.872;2022-09-01T02:42:16;4.00;;;1.80;;
37529;SDS011;23374;52.758;6.872;2022-09-01T02:44:36;3.20;;;1.97;;
37529;SDS011;23374;52.758;6.872;2022-09-01T02:46:58;2.27;;;1.60;;
37529;SDS011;23374;52.758;6.872;2022-09-01T02:49:21;2.37;;;1.57;;
37529;SDS011;23374;52.758;6.872;2022-09-01T02:51:48;4.63;;;1.83;;
37529;SDS011;23374;52.758;6.872;2022-09-01T02:54:13;3.17;;;1.67;;
37529;SDS011;23374;52.758;6.872;2022-09-01T02:56:35;3.23;;;1.70;;
37529;SDS011;23374;52.758;6.872;2022-09-01T02:58:55;4.60;;;1.90;;
37529;SDS011;23374;52.758;6.872;2022-09-01T03:01:25;4.27;;;2.00;;
37529;SDS011;23374;52.758;6.872;2022-09-01T03:03:48;4.77;;;2.27;;
37529;SDS011;23374;52.758;6.872;2022-09-01T03:06:09;3.70;;;2.13;;
37529;SDS011;23374;52.758;6.872;2022-09-01T03:08:31;2.87;;;1.80;;
37529;SDS011;23374;52.758;6.872;2022-09-01T03:10:58;3.13;;;2.30;;
37529;SDS011;23374;52.758;6.872;2022-09-01T03:13:21;2.43;;;1.80;;
37529;SDS011;23374;52.758;6.872;2022-09-01T03:15:42;2.97;;;2.00;;
37529;SDS011;23374;52.758;6.872;2022-09-01T03:18:04;3.00;;;1.73;;
37529;SDS011;23374;52.758;6.872;2022-09-01T03:20:27;3.03;;;1.90;;
37529;SDS011;23374;52.758;6.872;2022-09-01T03:22:53;2.73;;;1.80;;
37529;SDS011;23374;52.758;6.872;2022-09-01T03:25:16;3.03;;;2.00;;
37529;SDS011;23374;52.758;6.872;2022-09-01T03:27:38;2.77;;;1.70;;
37529;SDS011;23374;52.758;6.872;2022-09-01T03:29:58;2.73;;;1.70;;
37529;SDS011;23374;52.758;6.872;2022-09-01T03:32:18;2.63;;;1.80;;
37529;SDS011;23374;52.758;6.872;2022-09-01T03:34:38;2.73;;;2.20;;
37529;SDS011;23374;52.758;6.872;2022-09-01T03:36:58;5.37;;;1.90;;
37529;SDS011;23374;52.758;6.872;2022-09-01T03:39:19;2.13;;;1.73;;
37529;SDS011;23374;52.758;6.872;2022-09-01T03:41:39;5.00;;;2.17;;
37529;SDS011;23374;52.758;6.872;2022-09-01T03:43:59;2.47;;;1.90;;
37529;SDS011;23374;52.758;6.872;2022-09-01T03:46:20;3.90;;;2.23;;
37529;SDS011;23374;52.758;6.872;2022-09-01T03:48:43;3.23;;;1.77;;
37529;SDS011;23374;52.758;6.872;2022-09-01T03:51:03;2.40;;;2.20;;
37529;SDS011;23374;52.758;6.872;2022-09-01T03:53:23;3.80;;;2.23;;
37529;SDS011;23374;52.758;6.872;2022-09-01T03:55:46;3.30;;;1.83;;
37529;SDS011;23374;52.758;6.872;2022-09-01T03:58:08;3.07;;;2.10;;
37529;SDS011;23374;52.758;6.872;2022-09-01T04:00:35;3.73;;;1.97;;
37529;SDS011;23374;52.758;6.872;2022-09-01T04:02:58;4.07;;;1.87;;
37529;SDS011;23374;52.758;6.872;2022-09-01T04:05:19;2.17;;;1.57;;
37529;SDS011;23374;52.758;6.872;2022-09-01T04:07:41;2.37;;;1.77;;
37529;SDS011;23374;52.758;6.872;2022-09-01T04:10:05;2.47;;;1.67;;
37529;SDS011;23374;52.758;6.872;2022-09-01T04:12:30;3.70;;;1.57;;
37529;SDS011;23374;52.758;6.872;2022-09-01T04:14:51;1.60;;;1.30;;
37529;SDS011;23374;52.758;6.872;2022-09-01T04:17:12;1.87;;;1.57;;
37529;SDS011;23374;52.758;6.872;2022-09-01T04:19:51;2.13;;;1.67;;
37529;SDS011;23374;52.758;6.872;2022-09-01T04:22:11;2.80;;;1.80;;
37529;SDS011;23374;52.758;6.872;2022-09-01T04:24:32;3.83;;;1.60;;
37529;SDS011;23374;52.758;6.872;2022-09-01T04:26:54;4.50;;;1.70;;
37529;SDS011;23374;52.758;6.872;2022-09-01T04:29:18;3.10;;;1.60;;
37529;SDS011;23374;52.758;6.872;2022-09-01T04:31:45;4.03;;;1.80;;
37529;SDS011;23374;52.758;6.872;2022-09-01T04:34:10;2.97;;;1.90;;
37529;SDS011;23374;52.758;6.872;2022-09-01T04:36:32;3.03;;;2.00;;
37529;SDS011;23374;52.758;6.872;2022-09-01T04:38:54;1.73;;;1.43;;
37529;SDS011;23374;52.758;6.872;2022-09-01T04:41:17;3.63;;;1.57;;
37529;SDS011;23374;52.758;6.872;2022-09-01T04:43:39;3.17;;;1.70;;
37529;SDS011;23374;52.758;6.872;2022-09-01T04:45:59;2.73;;;1.60;;
37529;SDS011;23374;52.758;6.872;2022-09-01T04:48:21;3.80;;;1.63;;
37529;SDS011;23374;52.758;6.872;2022-09-01T04:50:42;3.40;;;2.10;;
37529;SDS011;23374;52.758;6.872;2022-09-01T04:53:03;2.73;;;1.73;;
37529;SDS011;23374;52.758;6.872;2022-09-01T04:55:24;2.23;;;1.80;;
37529;SDS011;23374;52.758;6.872;2022-09-01T04:57:48;1.60;;;1.50;;
37529;SDS011;23374;52.758;6.872;2022-09-01T05:00:10;5.27;;;1.80;;
37529;SDS011;23374;52.758;6.872;2022-09-01T05:02:40;2.53;;;1.50;;
37529;SDS011;23374;52.758;6.872;2022-09-01T05:05:01;3.30;;;1.40;;
37529;SDS011;23374;52.758;6.872;2022-09-01T05:07:22;2.57;;;1.50;;
37529;SDS011;23374;52.758;6.872;2022-09-01T05:09:42;3.60;;;1.67;;
37529;SDS011;23374;52.758;6.872;2022-09-01T05:12:04;2.57;;;1.57;;
37529;SDS011;23374;52.758;6.872;2022-09-01T05:14:31;2.33;;;1.60;;
37529;SDS011;23374;52.758;6.872;2022-09-01T05:16:57;2.80;;;1.70;;
37529;SDS011;23374;52.758;6.872;2022-09-01T05:19:18;1.87;;;1.70;;
37529;SDS011;23374;52.758;6.872;2022-09-01T05:21:44;4.60;;;1.70;;
37529;SDS011;23374;52.758;6.872;2022-09-01T05:24:05;1.90;;;1.60;;
37529;SDS011;23374;52.758;6.872;2022-09-01T05:26:30;3.47;;;1.40;;
37529;SDS011;23374;52.758;6.872;2022-09-01T05:28:58;2.83;;;1.60;;
37529;SDS011;23374;52.758;6.872;2022-09-01T05:31:22;1.90;;;1.60;;
37529;SDS011;23374;52.758;6.872;2022-09-01T05:33:43;2.23;;;1.53;;
37529;SDS011;23374;52.758;6.872;2022-09-01T05:36:04;2.47;;;1.60;;
37529;SDS011;23374;52.758;6.872;2022-09-01T05:38:27;2.13;;;1.80;;
37529;SDS011;23374;52.758;6.872;2022-09-01T05:41:00;2.40;;;1.77;;
37529;SDS011;23374;52.758;6.872;2022-09-01T05:43:23;1.70;;;1.30;;
37529;SDS011;23374;52.758;6.872;2022-09-01T05:45:46;2.60;;;1.50;;
37529;SDS011;23374;52.758;6.872;2022-09-01T05:48:06;1.73;;;1.50;;
37529;SDS011;23374;52.758;6.872;2022-09-01T05:50:28;3.23;;;1.80;;
37529;SDS011;23374;52.758;6.872;2022-09-01T05:52:48;2.40;;;1.70;;
37529;SDS011;23374;52.758;6.872;2022-09-01T05:55:09;3.00;;;1.57;;
37529;SDS011;23374;52.758;6.872;2022-09-01T05:57:29;4.30;;;1.70;;
37529;SDS011;23374;52.758;6.872;2022-09-01T05:59:53;1.90;;;1.37;;
37529;SDS011;23374;52.758;6.872;2022-09-01T06:02:13;2.07;;;1.70;;
37529;SDS011;23374;52.758;6.872;2022-09-01T06:04:33;2.33;;;1.43;;
37529;SDS011;23374;52.758;6.872;2022-09-01T06:06:59;1.93;;;1.53;;
37529;SDS011;23374;52.758;6.872;2022-09-01T06:09:20;2.60;;;1.80;;
37529;SDS011;23374;52.758;6.872;2022-09-01T06:11:43;3.13;;;1.73;;
37529;SDS011;23374;52.758;6.872;2022-09-01T06:14:05;2.63;;;1.60;;
37529;SDS011;23374;52.758;6.872;2022-09-01T06:16:28;2.93;;;1.77;;
37529;SDS011;23374;52.758;6.872;2022-09-01T06:18:50;4.87;;;1.57;;
37529;SDS011;23374;52.758;6.872;2022-09-01T06:21:12;3.27;;;1.53;;
37529;SDS011;23374;52.758;6.872;2022-09-01T06:23:33;3.47;;;1.67;;
37529;SDS011;23374;52.758;6.872;2022-09-01T06:25:54;8.90;;;1.53;;
37529;SDS011;23374;52.758;6.872;2022-09-01T06:28:15;1.77;;;1.67;;
37529;SDS011;23374;52.758;6.872;2022-09-01T06:30:39;4.37;;;1.50;;
37529;SDS011;23374;52.758;6.872;2022-09-01T06:33:02;2.73;;;1.57;;
37529;SDS011;23374;52.758;6.872;2022-09-01T06:35:27;5.03;;;1.83;;
37529;SDS011;23374;52.758;6.872;2022-09-01T06:37:48;2.03;;;1.67;;
37529;SDS011;23374;52.758;6.872;2022-09-01T06:40:09;1.83;;;1.60;;
37529;SDS011;23374;52.758;6.872;2022-09-01T06:42:36;3.07;;;1.40;;
37529;SDS011;23374;52.758;6.872;2022-09-01T06:44:57;2.00;;;1.50;;
37529;SDS011;23374;52.758;6.872;2022-09-01T06:47:18;3.47;;;1.47;;
37529;SDS011;23374;52.758;6.872;2022-09-01T06:49:38;1.80;;;1.57;;
37529;SDS011;23374;52.758;6.872;2022-09-01T06:52:00;2.80;;;1.63;;
37529;SDS011;23374;52.758;6.872;2022-09-01T06:54:21;5.30;;;1.50;;
37529;SDS011;23374;52.758;6.872;2022-09-01T06:56:41;2.90;;;1.20;;
37529;SDS011;23374;52.758;6.872;2022-09-01T06:59:02;4.90;;;1.40;;
37529;SDS011;23374;52.758;6.872;2022-09-01T07:01:30;3.23;;;1.57;;
37529;SDS011;23374;52.758;6.872;2022-09-01T07:03:51;3.07;;;1.47;;
37529;SDS011;23374;52.758;6.872;2022-09-01T07:06:13;2.47;;;1.50;;
37529;SDS011;23374;52.758;6.872;2022-09-01T07:08:34;2.50;;;1.20;;
37529;SDS011;23374;52.758;6.872;2022-09-01T07:10:58;2.93;;;1.40;;
37529;SDS011;23374;52.758;6.872;2022-09-01T07:13:21;2.50;;;1.20;;
37529;SDS011;23374;52.758;6.872;2022-09-01T07:15:42;4.37;;;1.30;;
37529;SDS011;23374;52.758;6.872;2022-09-01T07:18:03;7.60;;;1.40;;
37529;SDS011;23374;52.758;6.872;2022-09-01T07:20:26;5.63;;;1.53;;
37529;SDS011;23374;52.758;6.872;2022-09-01T07:22:58;2.20;;;1.70;;
37529;SDS011;23374;52.758;6.872;2022-09-01T07:25:19;3.37;;;1.60;;
37529;SDS011;23374;52.758;6.872;2022-09-01T07:27:40;4.07;;;1.53;;
37529;SDS011;23374;52.758;6.872;2022-09-01T07:30:10;2.07;;;1.40;;
37529;SDS011;23374;52.758;6.872;2022-09-01T07:32:31;1.60;;;1.27;;
37529;SDS011;23374;52.758;6.872;2022-09-01T07:34:52;4.43;;;1.50;;
37529;SDS011;23374;52.758;6.872;2022-09-01T07:37:14;2.13;;;1.20;;
37529;SDS011;23374;52.758;6.872;2022-09-01T07:39:34;2.13;;;1.37;;
37529;SDS011;23374;52.758;6.872;2022-09-01T07:41:55;4.80;;;1.30;;
37529;SDS011;23374;52.758;6.872;2022-09-01T07:44:16;2.20;;;1.40;;
37529;SDS011;23374;52.758;6.872;2022-09-01T07:46:37;1.83;;;1.20;;
37529;SDS011;23374;52.758;6.872;2022-09-01T07:48:58;3.27;;;1.20;;
37529;SDS011;23374;52.758;6.872;2022-09-01T07:51:21;4.87;;;1.27;;
37529;SDS011;23374;52.758;6.872;2022-09-01T07:53:45;2.10;;;1.30;;
37529;SDS011;23374;52.758;6.872;2022-09-01T07:56:08;2.47;;;1.30;;
37529;SDS011;23374;52.758;6.872;2022-09-01T07:58:30;5.23;;;1.23;;
37529;SDS011;23374;52.758;6.872;2022-09-01T08:00:52;1.50;;;0.90;;
37529;SDS011;23374;52.758;6.872;2022-09-01T08:03:15;1.17;;;1.00;;
37529;SDS011;23374;52.758;6.872;2022-09-01T08:05:37;3.63;;;0.90;;
37529;SDS011;23374;52.758;6.872;2022-09-01T08:07:57;1.10;;;0.80;;
37529;SDS011;23374;52.758;6.872;2022-09-01T08:10:19;2.30;;;0.80;;
37529;SDS011;23374;52.758;6.872;2022-09-01T08:12:39;3.93;;;1.30;;
37529;SDS011;23374;52.758;6.872;2022-09-01T08:15:01;3.37;;;1.10;;
37529;SDS011;23374;52.758;6.872;2022-09-01T08:17:23;1.53;;;0.70;;
37529;SDS011;23374;52.758;6.872;2022-09-01T08:19:44;1.53;;;0.97;;
37529;SDS011;23374;52.758;6.872;2022-09-01T08:22:05;2.13;;;0.90;;
37529;SDS011;23374;52.758;6.872;2022-09-01T08:24:25;2.43;;;0.90;;
37529;SDS011;23374;52.758;6.872;2022-09-01T08:26:46;2.23;;;1.00;;
37529;SDS011;23374;52.758;6.872;2022-09-01T08:29:07;1.23;;;0.60;;
37529;SDS011;23374;52.758;6.872;2022-09-01T08:31:27;4.10;;;1.00;;
37529;SDS011;23374;52.758;6.872;2022-09-01T08:33:48;1.53;;;0.83;;
37529;SDS011;23374;52.758;6.872;2022-09-01T08:36:11;3.17;;;0.90;;
37529;SDS011;23374;52.758;6.872;2022-09-01T08:38:32;3.50;;;1.00;;
37529;SDS011;23374;52.758;6.872;2022-09-01T08:40:55;1.93;;;0.70;;
37529;SDS011;23374;52.758;6.872;2022-09-01T08:44:43;1.43;;;0.80;;
37529;SDS011;23374;52.758;6.872;2022-09-01T08:47:26;7.00;;;0.83;;
37529;SDS011;23374;52.758;6.872;2022-09-01T08:49:47;1.10;;;0.60;;
37529;SDS011;23374;52.758;6.872;2022-09-01T08:54:09;1.60;;;0.70;;
37529;SDS011;23374;52.758;6.872;2022-09-01T08:57:31;0.87;;;0.70;;
37529;SDS011;23374;52.758;6.872;2022-09-01T08:59:54;5.20;;;0.83;;
37529;SDS011;23374;52.758;6.872;2022-09-01T09:07:28;1.37;;;0.80;;
37529;SDS011;23374;52.758;6.872;2022-09-01T09:10:18;1.47;;;0.90;;
37529;SDS011;23374;52.758;6.872;2022-09-01T09:15:02;0.60;;;0.43;;
37529;SDS011;23374;52.758;6.872;2022-09-01T09:17:45;0.60;;;0.60;;
37529;SDS011;23374;52.758;6.872;2022-09-01T09:20:18;2.23;;;0.73;;
37529;SDS011;23374;52.758;6.872;2022-09-01T09:22:39;3.53;;;1.07;;
37529;SDS011;23374;52.758;6.872;2022-09-01T09:25:07;0.90;;;0.77;;
37529;SDS011;23374;52.758;6.872;2022-09-01T09:27:36;2.20;;;0.70;;
37529;SDS011;23374;52.758;6.872;2022-09-01T09:30:09;1.27;;;0.80;;
37529;SDS011;23374;52.758;6.872;2022-09-01T09:33:31;3.53;;;0.93;;
37529;SDS011;23374;52.758;6.872;2022-09-01T09:35:54;2.10;;;0.60;;
37529;SDS011;23374;52.758;6.872;2022-09-01T09:38:33;0.60;;;0.60;;
37529;SDS011;23374;52.758;6.872;2022-09-01T09:41:07;1.20;;;0.63;;
37529;SDS011;23374;52.758;6.872;2022-09-01T09:43:46;1.23;;;0.67;;
37529;SDS011;23374;52.758;6.872;2022-09-01T09:46:52;0.40;;;0.40;;
37529;SDS011;23374;52.758;6.872;2022-09-01T09:49:21;1.50;;;0.67;;
37529;SDS011;23374;52.758;6.872;2022-09-01T09:51:54;0.50;;;0.50;;
37529;SDS011;23374;52.758;6.872;2022-09-01T09:54:24;1.60;;;0.40;;
37529;SDS011;23374;52.758;6.872;2022-09-01T09:56:47;2.63;;;0.70;;
37529;SDS011;23374;52.758;6.872;2022-09-01T09:59:32;0.50;;;0.50;;
37529;SDS011;23374;52.758;6.872;2022-09-01T10:08:43;0.50;;;0.43;;
37529;SDS011;23374;52.758;6.872;2022-09-01T10:11:05;1.63;;;1.00;;
37529;SDS011;23374;52.758;6.872;2022-09-01T10:13:26;1.83;;;0.50;;
37529;SDS011;23374;52.758;6.872;2022-09-01T10:15:50;0.70;;;0.50;;
37529;SDS011;23374;52.758;6.872;2022-09-01T10:18:21;1.93;;;0.60;;
37529;SDS011;23374;52.758;6.872;2022-09-01T10:21:06;1.30;;;0.50;;
37529;SDS011;23374;52.758;6.872;2022-09-01T10:23:32;3.30;;;0.70;;
37529;SDS011;23374;52.758;6.872;2022-09-01T10:29:31;1.33;;;0.87;;
37529;SDS011;23374;52.758;6.872;2022-09-01T10:31:56;0.63;;;0.47;;
37529;SDS011;23374;52.758;6.872;2022-09-01T10:34:16;0.67;;;0.33;;
37529;SDS011;23374;52.758;6.872;2022-09-01T10:36:38;0.37;;;0.30;;
37529;SDS011;23374;52.758;6.872;2022-09-01T10:39:03;2.57;;;0.60;;
37529;SDS011;23374;52.758;6.872;2022-09-01T10:41:54;0.83;;;0.43;;
37529;SDS011;23374;52.758;6.872;2022-09-01T10:44:21;0.40;;;0.40;;
37529;SDS011;23374;52.758;6.872;2022-09-01T10:47:34;2.17;;;0.57;;
37529;SDS011;23374;52.758;6.872;2022-09-01T10:50:02;1.17;;;0.60;;
37529;SDS011;23374;52.758;6.872;2022-09-01T10:53:03;1.60;;;0.40;;
37529;SDS011;23374;52.758;6.872;2022-09-01T10:55:42;0.53;;;0.50;;
37529;SDS011;23374;52.758;6.872;2022-09-01T11:04:06;2.27;;;1.13;;
37529;SDS011;23374;52.758;6.872;2022-09-01T11:07:29;1.80;;;0.60;;
37529;SDS011;23374;52.758;6.872;2022-09-01T11:10:30;0.80;;;0.67;;
37529;SDS011;23374;52.758;6.872;2022-09-01T11:13:23;0.73;;;0.60;;
37529;SDS011;23374;52.758;6.872;2022-09-01T11:15:52;1.07;;;0.60;;
37529;SDS011;23374;52.758;6.872;2022-09-01T11:18:22;0.47;;;0.40;;
37529;SDS011;23374;52.758;6.872;2022-09-01T11:20:45;0.50;;;0.43;;
37529;SDS011;23374;52.758;6.872;2022-09-01T11:23:28;0.93;;;0.60;;
37529;SDS011;23374;52.758;6.872;2022-09-01T11:25:52;0.80;;;0.60;;
37529;SDS011;23374;52.758;6.872;2022-09-01T11:28:37;1.63;;;0.70;;
37529;SDS011;23374;52.758;6.872;2022-09-01T11:31:39;1.57;;;0.80;;
37529;SDS011;23374;52.758;6.872;2022-09-01T11:34:16;0.97;;;0.60;;
37529;SDS011;23374;52.758;6.872;2022-09-01T11:36:58;2.40;;;0.80;;
37529;SDS011;23374;52.758;6.872;2022-09-01T11:40:03;1.80;;;0.60;;
37529;SDS011;23374;52.758;6.872;2022-09-01T11:42:39;0.67;;;0.60;;
37529;SDS011;23374;52.758;6.872;2022-09-01T11:45:13;1.17;;;0.67;;
37529;SDS011;23374;52.758;6.872;2022-09-01T11:47:42;1.40;;;0.80;;
37529;SDS011;23374;52.758;6.872;2022-09-01T11:50:19;0.70;;;0.70;;
37529;SDS011;23374;52.758;6.872;2022-09-01T11:52:59;1.07;;;0.60;;
37529;SDS011;23374;52.758;6.872;2022-09-01T11:55:50;1.87;;;0.77;;
37529;SDS011;23374;52.758;6.872;2022-09-01T11:58:34;0.90;;;0.60;;
37529;SDS011;23374;52.758;6.872;2022-09-01T12:01:30;0.70;;;0.70;;
37529;SDS011;23374;52.758;6.872;2022-09-01T12:03:53;1.90;;;0.70;;
37529;SDS011;23374;52.758;6.872;2022-09-01T12:06:22;1.03;;;0.60;;
37529;SDS011;23374;52.758;6.872;2022-09-01T12:08:59;0.50;;;0.50;;
37529;SDS011;23374;52.758;6.872;2022-09-01T12:11:26;2.40;;;0.70;;
37529;SDS011;23374;52.758;6.872;2022-09-01T12:14:06;1.53;;;0.77;;
37529;SDS011;23374;52.758;6.872;2022-09-01T12:16:28;3.23;;;0.60;;
37529;SDS011;23374;52.758;6.872;2022-09-01T12:18:54;1.10;;;0.60;;
37529;SDS011;23374;52.758;6.872;2022-09-01T12:21:34;0.60;;;0.60;;
37529;SDS011;23374;52.758;6.872;2022-09-01T12:24:21;0.90;;;0.67;;
37529;SDS011;23374;52.758;6.872;2022-09-01T12:26:44;0.70;;;0.70;;
37529;SDS011;23374;52.758;6.872;2022-09-01T12:29:06;2.07;;;0.70;;
37529;SDS011;23374;52.758;6.872;2022-09-01T12:31:27;1.53;;;0.50;;
37529;SDS011;23374;52.758;6.872;2022-09-01T12:33:48;0.97;;;0.50;;
37529;SDS011;23374;52.758;6.872;2022-09-01T12:38:21;1.23;;;0.60;;
37529;SDS011;23374;52.758;6.872;2022-09-01T12:40:43;0.50;;;0.40;;
37529;SDS011;23374;52.758;6.872;2022-09-01T12:43:06;1.80;;;0.60;;
37529;SDS011;23374;52.758;6.872;2022-09-01T12:45:41;2.93;;;0.57;;
37529;SDS011;23374;52.758;6.872;2022-09-01T12:48:03;2.60;;;0.70;;
37529;SDS011;23374;52.758;6.872;2022-09-01T12:50:35;0.90;;;0.60;;
37529;SDS011;23374;52.758;6.872;2022-09-01T12:52:57;1.07;;;0.70;;
37529;SDS011;23374;52.758;6.872;2022-09-01T12:55:22;1.80;;;0.50;;
37529;SDS011;23374;52.758;6.872;2022-09-01T12:57:49;1.17;;;0.70;;
37529;SDS011;23374;52.758;6.872;2022-09-01T13:00:24;0.30;;;0.30;;
37529;SDS011;23374;52.758;6.872;2022-09-01T13:03:23;0.60;;;0.50;;
37529;SDS011;23374;52.758;6.872;2022-09-01T13:05:49;0.40;;;0.40;;
37529;SDS011;23374;52.758;6.872;2022-09-01T13:08:15;3.10;;;0.50;;
37529;SDS011;23374;52.758;6.872;2022-09-01T13:10:40;0.97;;;0.77;;
37529;SDS011;23374;52.758;6.872;2022-09-01T13:13:21;1.17;;;0.57;;
37529;SDS011;23374;52.758;6.872;2022-09-01T13:15:49;1.07;;;0.50;;
37529;SDS011;23374;52.758;6.872;2022-09-01T13:18:11;0.60;;;0.50;;
37529;SDS011;23374;52.758;6.872;2022-09-01T13:20:32;1.07;;;0.60;;
37529;SDS011;23374;52.758;6.872;2022-09-01T13:22:53;4.33;;;0.80;;
37529;SDS011;23374;52.758;6.872;2022-09-01T13:25:17;1.43;;;0.70;;
37529;SDS011;23374;52.758;6.872;2022-09-01T13:27:39;0.50;;;0.43;;
37529;SDS011;23374;52.758;6.872;2022-09-01T13:30:04;0.73;;;0.67;;
37529;SDS011;23374;52.758;6.872;2022-09-01T13:32:25;0.93;;;0.60;;
37529;SDS011;23374;52.758;6.872;2022-09-01T13:34:47;0.63;;;0.47;;
37529;SDS011;23374;52.758;6.872;2022-09-01T13:37:08;2.97;;;0.80;;
37529;SDS011;23374;52.758;6.872;2022-09-01T13:39:28;0.50;;;0.40;;
37529;SDS011;23374;52.758;6.872;2022-09-01T13:41:49;0.70;;;0.50;;
37529;SDS011;23374;52.758;6.872;2022-09-01T13:44:09;0.77;;;0.57;;
37529;SDS011;23374;52.758;6.872;2022-09-01T13:46:30;1.63;;;0.50;;
37529;SDS011;23374;52.758;6.872;2022-09-01T13:48:50;2.10;;;0.60;;
37529;SDS011;23374;52.758;6.872;2022-09-01T13:51:10;0.57;;;0.57;;
37529;SDS011;23374;52.758;6.872;2022-09-01T13:53:30;1.33;;;0.67;;
37529;SDS011;23374;52.758;6.872;2022-09-01T13:55:50;1.30;;;0.70;;
37529;SDS011;23374;52.758;6.872;2022-09-01T13:58:10;3.37;;;1.07;;
37529;SDS011;23374;52.758;6.872;2022-09-01T14:00:34;1.70;;;0.57;;
37529;SDS011;23374;52.758;6.872;2022-09-01T14:02:59;0.53;;;0.30;;
37529;SDS011;23374;52.758;6.872;2022-09-01T14:05:31;3.03;;;0.80;;
37529;SDS011;23374;52.758;6.872;2022-09-01T14:07:53;1.27;;;0.40;;
37529;SDS011;23374;52.758;6.872;2022-09-01T14:10:14;2.57;;;0.50;;
37529;SDS011;23374;52.758;6.872;2022-09-01T14:12:36;0.60;;;0.50;;
37529;SDS011;23374;52.758;6.872;2022-09-01T14:14:56;1.60;;;0.87;;
37529;SDS011;23374;52.758;6.872;2022-09-01T14:17:17;1.53;;;0.50;;
37529;SDS011;23374;52.758;6.872;2022-09-01T14:19:37;1.37;;;0.60;;
37529;SDS011;23374;52.758;6.872;2022-09-01T14:21:57;0.90;;;0.50;;
37529;SDS011;23374;52.758;6.872;2022-09-01T14:24:18;2.47;;;0.60;;
37529;SDS011;23374;52.758;6.872;2022-09-01T14:26:40;0.73;;;0.50;;
37529;SDS011;23374;52.758;6.872;2022-09-01T14:29:01;0.50;;;0.50;;
37529;SDS011;23374;52.758;6.872;2022-09-01T14:31:21;2.40;;;0.60;;
37529;SDS011;23374;52.758;6.872;2022-09-01T14:33:42;0.97;;;0.60;;
37529;SDS011;23374;52.758;6.872;2022-09-01T14:36:05;0.50;;;0.40;;
37529;SDS011;23374;52.758;6.872;2022-09-01T14:38:26;0.47;;;0.43;;
37529;SDS011;23374;52.758;6.872;2022-09-01T14:40:47;0.80;;;0.40;;
37529;SDS011;23374;52.758;6.872;2022-09-01T14:43:10;1.20;;;0.57;;
37529;SDS011;23374;52.758;6.872;2022-09-01T14:45:34;1.50;;;0.50;;
37529;SDS011;23374;52.758;6.872;2022-09-01T14:47:57;2.30;;;0.60;;
37529;SDS011;23374;52.758;6.872;2022-09-01T14:50:20;1.47;;;0.73;;
37529;SDS011;23374;52.758;6.872;2022-09-01T14:52:41;1.43;;;0.40;;
37529;SDS011;23374;52.758;6.872;2022-09-01T14:55:03;1.40;;;0.70;;
37529;SDS011;23374;52.758;6.872;2022-09-01T14:57:24;2.03;;;0.60;;
37529;SDS011;23374;52.758;6.872;2022-09-01T14:59:44;0.63;;;0.50;;
37529;SDS011;23374;52.758;6.872;2022-09-01T15:02:04;2.10;;;0.40;;
37529;SDS011;23374;52.758;6.872;2022-09-01T15:04:25;3.50;;;1.10;;
37529;SDS011;23374;52.758;6.872;2022-09-01T15:06:46;1.90;;;0.60;;
37529;SDS011;23374;52.758;6.872;2022-09-01T15:09:07;0.97;;;0.60;;
37529;SDS011;23374;52.758;6.872;2022-09-01T15:11:27;0.50;;;0.50;;